Terminal Aerodrome Forecast
Issued by NWS

Home | Current Version | Previous Version | Text Only | Print | Product List | Glossary On
Versions: 1 2 3 4 5 6 7 8 9 10 11 12 13 14 15 16
000
FTUS43 KLSX 311100
TAFCPS
TAF
KCPS 311127Z 3112/0112 00000KT 4SM BR SCT250
      TEMPO 3112/3113 1/2SM FG
     FM311400 VRB04KT P6SM SCT060
     FM010900 00000KT 2SM BR SCT250=

USA.gov is the U.S. government's official web portal to all federal, state and local government web resources and services.